Latest Weather Observations for Adele Island

IDW60801

Issued at 5:33 pm WST Friday 1 July 2016 (issued every 30 minutes, with the page automatically refreshed every 10 minutes)

About weather observations | Map of weather stations | Latest weather observations for WA | Other Formats
Station Details ID: 200735 Name: ADELE ISLAND Lat: -15.51 Lon: 123.16 Height: 4.6 m
Data from the previous 72 hours. | See also: Recent months at Adele Island
Date/Time
WST
Temp
°C
App
Temp
°C
Dew
Point
°C
Rel
Hum
%
Delta-T
°C
Wind Press
QNH
hPa
Press
MSL
hPa
Rain since
9am
mm
Dir  Spd
km/h
Gust
km/h
Spd
kts
Gust
kts
01/05:30pm - - - - - E 13 15 7 8 1014.1 1014.0 -
01/05:00pm - - - - - ESE 11 15 6 8 1013.9 1013.8 -
01/04:30pm - - - - - ESE 13 15 7 8 1013.6 1013.5 -
01/04:00pm - - - - - SE 13 17 7 9 1013.4 1013.3 -
01/03:30pm - - - - - SE 17 20 9 11 1013.4 1013.3 -
01/03:00pm - - - - - ESE 17 22 9 12 1013.3 1013.2 -
01/02:30pm - - - - - ESE 15 20 8 11 1013.3 1013.2 -
01/02:00pm - - - - - SE 15 20 8 11 1013.6 1013.5 -
01/01:30pm - - - - - SE 13 19 7 10 1013.9 1013.8 -
01/01:00pm - - - - - ESE 13 19 7 10 1014.2 1014.1 -
01/12:30pm - - - - - E 13 17 7 9 1014.4 1014.3 -
01/12:00pm - - - - - ESE 15 20 8 11 1014.7 1014.6 -
01/11:30am - - - - - E 13 19 7 10 1014.9 1014.8 -
01/11:00am - - - - - E 15 19 8 10 1015.5 1015.4 -
01/10:30am - - - - - ESE 13 19 7 10 1015.7 1015.6 -
01/10:00am - - - - - ESE 13 19 7 10 1016.0 1015.9 -
01/09:30am - - - - - ESE 15 17 8 9 1016.2 1016.1 -
01/09:00am - - - - - ESE 13 19 7 10 1016.3 1016.2 -
01/08:30am - - - - - E 13 19 7 10 1016.3 1016.2 -
01/08:00am - - - - - E 2 13 1 7 1016.3 1016.2 -
01/07:30am - - - - - ENE 9 13 5 7 1016.1 1016.0 -
01/07:00am - - - - - ENE 11 13 6 7 1015.8 1015.7 -
01/06:30am - - - - - NE 7 9 4 5 1015.6 1015.5 -
01/06:00am - - - - - E 6 7 3 4 1015.3 1015.2 -
01/05:30am - - - - - CALM 0 4 0 2 1015.2 1015.1 -
01/05:00am - - - - - SSE 6 7 3 4 1015.1 1015.0 -
01/04:30am - - - - - CALM 0 2 0 1 1014.9 1014.8 -
01/04:00am - - - - - SSE 6 7 3 4 1015.0 1014.9 -
01/03:30am - - - - - CALM 0 4 0 2 1014.9 1014.8 -
01/03:00am - - - - - CALM 0 6 0 3 1014.9 1014.8 -
01/02:30am - - - - - CALM 0 0 0 0 1015.1 1015.0 -
01/02:00am - - - - - CALM 0 6 0 3 1015.2 1015.1 -
01/01:30am - - - - - N 7 9 4 5 1015.4 1015.3 -
01/01:00am - - - - - N 7 11 4 6 1015.5 1015.4 -
01/12:30am - - - - - N 9 11 5 6 1015.6 1015.5 -
01/12:00am - - - - - N 9 11 5 6 1015.7 1015.6 -
 
Date/Time
WST
Temp
°C
App
Temp
°C
Dew
Point
°C
Rel
Hum
%
Delta-T
°C
Wind Press
QNH
hPa
Press
MSL
hPa
Rain since
9am
mm
Dir  Spd
km/h
Gust
km/h
Spd
kts
Gust
kts
30/11:30pm - - - - - N 6 7 3 4 1015.8 1015.7 -
30/11:00pm - - - - - N 7 9 4 5 1016.0 1015.9 -
30/10:30pm - - - - - N 9 11 5 6 1016.2 1016.1 -
30/10:00pm - - - - - N 9 11 5 6 1016.1 1016.0 -
30/09:30pm - - - - - CALM 0 2 0 1 1015.9 1015.8 -
30/09:00pm - - - - - NNE 2 6 1 3 1015.8 1015.7 -
30/08:30pm - - - - - NNE 7 9 4 5 1015.3 1015.2 -
30/08:00pm - - - - - NNE 6 9 3 5 1015.1 1015.0 -
30/07:30pm - - - - - NNE 9 11 5 6 1014.6 1014.5 -
30/07:00pm - - - - - NNE 11 13 6 7 1014.2 1014.1 -
30/06:30pm - - - - - NNE 11 15 6 8 1013.8 1013.7 -
30/06:00pm - - - - - NNE 13 17 7 9 1013.7 1013.6 -
30/05:30pm - - - - - NNE 13 15 7 8 1013.5 1013.4 -
30/05:00pm - - - - - NNE 13 15 7 8 1013.3 1013.2 -
30/04:30pm - - - - - NE 9 13 5 7 1013.1 1013.0 -
30/04:00pm - - - - - E 9 13 5 7 1013.0 1012.9 -
30/03:30pm - - - - - ESE 9 13 5 7 1012.9 1012.8 -
30/03:00pm - - - - - ENE 11 15 6 8 1013.1 1013.0 -
30/02:30pm - - - - - E 11 17 6 9 1013.1 1013.0 -
30/02:00pm - - - - - E 13 20 7 11 1013.4 1013.3 -
30/01:30pm - - - - - E 15 20 8 11 1013.8 1013.7 -
30/01:00pm - - - - - E 17 22 9 12 1014.0 1013.9 -
30/12:30pm - - - - - E 19 22 10 12 1014.4 1014.3 -
30/12:00pm - - - - - E 19 24 10 13 1014.9 1014.8 -
30/11:30am - - - - - E 19 24 10 13 1015.3 1015.2 -
30/11:00am - - - - - E 20 24 11 13 1015.6 1015.5 -
30/10:30am - - - - - E 19 22 10 12 1016.2 1016.1 -
30/10:00am - - - - - E 20 26 11 14 1016.1 1016.0 -
30/09:30am - - - - - E 20 26 11 14 1016.1 1016.0 -
30/09:00am - - - - - E 19 24 10 13 1016.3 1016.2 -
30/08:30am - - - - - E 20 24 11 13 1016.3 1016.2 -
30/08:00am - - - - - E 19 22 10 12 1016.1 1016.0 -
30/07:30am - - - - - ENE 20 22 11 12 1015.9 1015.8 -
30/07:00am - - - - - ENE 19 24 10 13 1015.6 1015.5 -
30/06:30am - - - - - E 13 20 7 11 1015.4 1015.3 -
30/06:00am - - - - - ENE 13 17 7 9 1015.1 1015.0 -
30/05:30am - - - - - ENE 15 20 8 11 1014.9 1014.8 -
30/05:00am - - - - - NE 17 20 9 11 1014.8 1014.7 -
30/04:30am - - - - - ENE 17 20 9 11 1014.8 1014.7 -
30/04:00am - - - - - ENE 17 19 9 10 1014.9 1014.8 -
30/03:30am - - - - - NE 19 22 10 12 1014.8 1014.7 -
30/03:00am - - - - - NE 17 19 9 10 1014.9 1014.8 -
30/02:30am - - - - - NE 17 19 9 10 1015.2 1015.1 -
30/02:00am - - - - - NNE 13 17 7 9 1015.5 1015.4 -
30/01:30am - - - - - NNE 13 15 7 8 1015.7 1015.6 -
30/01:00am - - - - - NNE 11 13 6 7 1016.0 1015.9 -
30/12:30am - - - - - NNE 9 11 5 6 1016.4 1016.3 -
30/12:00am - - - - - NNE 9 13 5 7 1016.7 1016.6 -
 
Date/Time
WST
Temp
°C
App
Temp
°C
Dew
Point
°C
Rel
Hum
%
Delta-T
°C
Wind Press
QNH
hPa
Press
MSL
hPa
Rain since
9am
mm
Dir  Spd
km/h
Gust
km/h
Spd
kts
Gust
kts
29/11:30pm - - - - - NNE 9 11 5 6 1016.9 1016.8 -
29/11:00pm - - - - - NNE 11 13 6 7 1017.0 1016.9 -
29/10:30pm - - - - - NNE 11 13 6 7 1017.0 1016.9 -
29/10:00pm - - - - - NE 11 13 6 7 1017.0 1016.9 -
29/09:30pm - - - - - NE 11 13 6 7 1017.3 1017.2 -
29/09:00pm - - - - - NNE 13 15 7 8 1017.2 1017.1 -
29/08:30pm - - - - - NNE 15 19 8 10 1017.0 1016.9 -
29/08:00pm - - - - - NNE 15 17 8 9 1016.8 1016.7 -
29/07:30pm - - - - - NNE 17 20 9 11 1016.5 1016.4 -
29/07:00pm - - - - - NE 17 20 9 11 1016.1 1016.0 -
29/06:30pm - - - - - NE 17 20 9 11 1015.8 1015.7 -
29/06:00pm - - - - - NE 19 24 10 13 1015.5 1015.4 -
29/05:30pm - - - - - NE 22 26 12 14 1015.1 1015.0 -
29/05:00pm - - - - - NE 22 28 12 15 1014.9 1014.8 -
29/04:30pm - - - - - NE 22 28 12 15 1014.6 1014.5 -
29/04:00pm - - - - - NE 26 32 14 17 1014.3 1014.2 -
29/03:30pm - - - - - NE 24 30 13 16 1014.1 1014.0 -
29/03:00pm - - - - - NE 26 32 14 17 1014.0 1013.9 -
29/02:30pm - - - - - NE 28 33 15 18 1013.8 1013.7 -
29/02:00pm - - - - - NE 24 32 13 17 1013.9 1013.8 -
29/01:30pm - - - - - NE 26 32 14 17 1014.0 1013.9 -
29/01:00pm - - - - - NE 24 28 13 15 1014.2 1014.1 -
29/12:30pm - - - - - ENE 24 32 13 17 1014.5 1014.4 -
29/12:00pm - - - - - ENE 24 30 13 16 1014.9 1014.8 -
29/11:30am - - - - - ENE 26 35 14 19 1015.3 1015.2 -
29/11:00am - - - - - ENE 24 30 13 16 1015.6 1015.5 -
29/10:30am - - - - - ENE 24 32 13 17 1015.9 1015.8 -
29/10:00am - - - - - ENE 24 30 13 16 1016.0 1015.9 -
29/09:30am - - - - - ENE 26 32 14 17 1016.1 1016.0 -
29/09:00am - - - - - ENE 26 32 14 17 1016.2 1016.1 -
29/08:30am - - - - - ENE 26 30 14 16 1016.1 1016.0 -
29/08:00am - - - - - ENE 24 30 13 16 1015.8 1015.7 -
29/07:30am - - - - - ENE 22 28 12 15 1015.5 1015.4 -
29/07:00am - - - - - ENE 22 26 12 14 1015.2 1015.1 -
29/06:30am - - - - - ENE 24 28 13 15 1015.1 1015.0 -
29/06:00am - - - - - NE 15 17 8 9 1014.9 1014.8 -
29/05:30am - - - - - ENE 15 19 8 10 1014.7 1014.6 -
29/05:00am - - - - - ENE 15 19 8 10 1014.4 1014.3 -
29/04:30am - - - - - ENE 15 17 8 9 1014.5 1014.4 -
29/04:00am - - - - - ENE 13 17 7 9 1014.3 1014.2 -
29/03:30am - - - - - ENE 13 15 7 8 1014.3 1014.2 -
29/03:00am - - - - - NE 13 17 7 9 1014.3 1014.2 -
29/02:30am - - - - - NE 13 13 7 7 1014.5 1014.4 -
29/02:00am - - - - - NE 13 17 7 9 1014.8 1014.7 -
29/01:30am - - - - - NE 13 15 7 8 1015.0 1014.9 -
29/01:00am - - - - - NE 13 15 7 8 1015.3 1015.2 -
29/12:30am - - - - - NE 13 15 7 8 1015.5 1015.4 -
29/12:00am - - - - - NE 11 13 6 7 1015.5 1015.4 -
 
Date/Time
WST
Temp
°C
App
Temp
°C
Dew
Point
°C
Rel
Hum
%
Delta-T
°C
Wind Press
QNH
hPa
Press
MSL
hPa
Rain since
9am
mm
Dir  Spd
km/h
Gust
km/h
Spd
kts
Gust
kts
28/11:30pm - - - - - NE 11 13 6 7 1015.4 1015.3 -
28/11:00pm - - - - - NNE 11 15 6 8 1015.3 1015.2 -
28/10:30pm - - - - - NNE 13 15 7 8 1015.4 1015.3 -
28/10:00pm - - - - - N 15 15 8 8 1015.5 1015.4 -
28/09:30pm - - - - - NNE 13 17 7 9 1015.9 1015.8 -
28/09:00pm - - - - - NNE 13 15 7 8 1015.9 1015.8 -
28/08:30pm - - - - - NNE 11 13 6 7 1015.9 1015.8 -
28/08:00pm - - - - - NNE 13 17 7 9 1015.8 1015.7 -
28/07:30pm - - - - - NNE 13 17 7 9 1015.6 1015.5 -
28/07:00pm - - - - - NE 13 15 7 8 1015.2 1015.1 -
28/06:30pm - - - - - NE 13 15 7 8 1014.9 1014.8 -
28/06:00pm - - - - - NE 11 13 6 7 1014.5 1014.4 -

Other Formats:

Comma delimited format used in spreadsheet applications
http://www.bom.gov.au/fwo/IDW60801/IDW60801.94210.axf

JavaScript Object Notation format (JSON) in row-major order
http://www.bom.gov.au/fwo/IDW60801/IDW60801.94210.json